createdAt,value
2018-09-12T00:00:56.050Z,3.17
2018-09-12T00:02:59.061Z,3.37
2018-09-12T00:05:02.089Z,2.73
2018-09-12T00:07:05.156Z,4.27
2018-09-12T00:09:10.183Z,6.33
2018-09-12T00:11:13.196Z,3.93
2018-09-12T00:13:16.222Z,6.60
2018-09-12T00:15:21.178Z,5.83
2018-09-12T00:17:24.194Z,13.93
2018-09-12T00:19:27.223Z,9.53
2018-09-12T00:21:30.237Z,10.03
2018-09-12T00:23:33.250Z,10.90
2018-09-12T00:25:36.275Z,6.47
2018-09-12T00:27:39.384Z,5.73
2018-09-12T00:29:42.381Z,4.53
2018-09-12T00:31:45.415Z,10.00
2018-09-12T00:33:50.094Z,5.83
2018-09-12T00:35:53.634Z,5.10
2018-09-12T00:37:56.687Z,16.13
2018-09-12T00:39:59.716Z,8.53
2018-09-12T00:42:02.729Z,5.30
2018-09-12T00:44:06.039Z,4.23
2018-09-12T00:46:09.098Z,6.97
2018-09-12T00:48:12.118Z,5.47
2018-09-12T00:50:15.452Z,5.10
2018-09-12T00:52:19.554Z,5.10
2018-09-12T00:54:22.563Z,6.03
2018-09-12T00:56:25.619Z,4.33
2018-09-12T00:58:28.810Z,5.83
2018-09-12T01:00:31.842Z,4.90
2018-09-12T01:02:34.879Z,6.17
2018-09-12T01:04:37.897Z,4.63
2018-09-12T01:06:40.947Z,3.87
2018-09-12T01:08:43.959Z,4.80
2018-09-12T01:10:46.992Z,6.27
2018-09-12T01:12:51.200Z,3.87
2018-09-12T01:14:54.247Z,4.47
2018-09-12T01:16:57.359Z,5.10
2018-09-12T01:19:00.434Z,5.60
2018-09-12T01:21:03.511Z,4.53
2018-09-12T01:23:06.528Z,4.47
2018-09-12T01:25:09.577Z,4.60
2018-09-12T01:27:12.566Z,3.77
2018-09-12T01:29:15.577Z,3.40
2018-09-12T01:31:20.454Z,4.80
2018-09-12T01:33:23.471Z,5.57
2018-09-12T01:35:26.475Z,4.73
2018-09-12T01:37:29.479Z,4.10
2018-09-12T01:39:32.490Z,3.30
2018-09-12T01:41:35.545Z,3.10
2018-09-12T01:43:38.555Z,4.00
2018-09-12T01:45:41.554Z,3.80
2018-09-12T01:47:44.682Z,5.53
2018-09-12T01:49:47.682Z,4.43
2018-09-12T01:51:51.912Z,8.40
2018-09-12T01:53:55.226Z,7.00
2018-09-12T01:55:58.194Z,3.80
2018-09-12T01:58:01.169Z,3.93
2018-09-12T02:00:04.694Z,5.20
2018-09-12T02:02:07.711Z,4.43
2018-09-12T02:04:10.659Z,4.47
2018-09-12T02:06:13.627Z,3.87
2018-09-12T02:08:16.587Z,4.10
2018-09-12T02:10:20.571Z,4.00
2018-09-12T02:12:23.586Z,5.00
2018-09-12T02:14:26.575Z,4.43
2018-09-12T02:16:29.516Z,5.70
2018-09-12T02:18:32.524Z,3.70
2018-09-12T02:20:35.525Z,9.50
2018-09-12T02:22:38.508Z,4.70
2018-09-12T02:24:41.518Z,7.20
2018-09-12T02:26:44.531Z,4.90
2018-09-12T02:28:47.704Z,6.27
2018-09-12T02:30:52.466Z,3.73
2018-09-12T02:32:55.434Z,4.93
2018-09-12T02:34:58.417Z,4.37
2018-09-12T02:37:01.388Z,4.60
2018-09-12T02:39:08.415Z,3.77
2018-09-12T02:41:11.391Z,5.03
2018-09-12T02:43:14.374Z,5.30
2018-09-12T02:45:17.396Z,9.03
2018-09-12T02:47:27.538Z,7.43
2018-09-12T02:49:30.518Z,3.17
2018-09-12T02:51:33.557Z,5.40
2018-09-12T02:53:36.523Z,5.07
2018-09-12T02:55:39.538Z,5.03
2018-09-12T02:57:42.549Z,3.60
2018-09-12T02:59:45.515Z,4.73
2018-09-12T03:01:50.485Z,3.50
2018-09-12T03:03:53.511Z,5.53
2018-09-12T03:05:56.496Z,12.10
2018-09-12T03:07:59.530Z,9.63
2018-09-12T03:10:02.608Z,10.90
2018-09-12T03:12:05.632Z,15.00
2018-09-12T03:14:08.639Z,11.43
2018-09-12T03:16:11.614Z,19.10
2018-09-12T03:18:14.634Z,14.57
2018-09-12T03:20:17.615Z,18.70
2018-09-12T03:22:22.288Z,11.50
2018-09-12T03:24:25.300Z,9.57
2018-09-12T03:26:28.601Z,7.33
2018-09-12T03:28:31.571Z,6.30
2018-09-12T03:30:34.528Z,7.90
2018-09-12T03:32:37.639Z,8.27
2018-09-12T03:34:40.600Z,5.80
2018-09-12T03:36:43.555Z,5.40
2018-09-12T03:38:46.592Z,7.07
2018-09-12T03:40:50.878Z,5.43
2018-09-12T03:42:53.899Z,6.37
2018-09-12T03:44:56.876Z,14.97
2018-09-12T03:46:59.873Z,6.37
2018-09-12T03:49:02.891Z,6.53
2018-09-12T03:51:05.862Z,10.93
2018-09-12T03:53:08.860Z,17.67
2018-09-12T03:55:11.903Z,21.20
2018-09-12T03:57:14.899Z,13.60
2018-09-12T03:59:17.913Z,36.00
2018-09-12T04:01:21.052Z,15.30
2018-09-12T04:03:24.205Z,13.50
2018-09-12T04:05:27.199Z,10.60
2018-09-12T04:07:30.178Z,13.37
2018-09-12T04:09:34.042Z,20.93
2018-09-12T04:11:36.975Z,17.40
2018-09-12T04:13:44.592Z,18.00
2018-09-12T04:15:47.595Z,13.30
2018-09-12T04:17:51.942Z,8.10
2018-09-12T04:19:54.875Z,12.20
2018-09-12T04:21:57.819Z,12.50
2018-09-12T04:24:00.815Z,15.07
2018-09-12T04:26:03.796Z,7.60
2018-09-12T04:28:06.793Z,9.83
2018-09-12T04:30:09.758Z,26.73
2018-09-12T04:34:27.962Z,8.57
2018-09-12T04:36:30.931Z,15.23
2018-09-12T04:38:33.867Z,43.33
2018-09-12T04:40:37.213Z,15.77
2018-09-12T04:42:40.226Z,25.80
2018-09-12T04:44:43.222Z,39.93
2018-09-12T04:46:46.447Z,32.30
2018-09-12T04:48:51.234Z,32.93
2018-09-12T04:50:54.614Z,13.00
2018-09-12T04:52:57.781Z,35.53
2018-09-12T04:55:00.764Z,52.07
2018-09-12T04:57:03.898Z,14.67
2018-09-12T04:59:06.931Z,21.53
2018-09-12T05:01:09.932Z,20.20
2018-09-12T05:03:12.935Z,13.23
2018-09-12T05:05:16.001Z,16.60
2018-09-12T05:07:20.092Z,30.00
2018-09-12T05:09:23.103Z,27.27
2018-09-12T05:11:26.154Z,19.43
2018-09-12T05:13:29.149Z,12.50
2018-09-12T05:15:32.141Z,29.37
2018-09-12T05:17:35.420Z,7.27
2018-09-12T05:19:38.484Z,8.27
2018-09-12T05:21:41.502Z,23.57
2018-09-12T05:23:44.678Z,15.53
2018-09-12T05:25:47.659Z,30.37
2018-09-12T05:27:51.996Z,11.13
2018-09-12T05:29:55.011Z,15.57
2018-09-12T05:31:58.115Z,20.77
2018-09-12T05:34:01.236Z,11.37
2018-09-12T05:36:04.257Z,7.63
2018-09-12T05:38:07.240Z,8.10
2018-09-12T05:40:10.255Z,14.50
2018-09-12T05:42:13.248Z,20.20
2018-09-12T05:44:16.196Z,6.27
2018-09-12T05:46:21.166Z,8.27
2018-09-12T05:48:24.316Z,7.00
2018-09-12T05:50:27.278Z,8.47
2018-09-12T05:52:30.230Z,4.03
2018-09-12T05:54:33.340Z,14.83
2018-09-12T05:56:36.297Z,7.83
2018-09-12T05:58:39.299Z,4.43
2018-09-12T06:00:42.291Z,5.40
2018-09-12T06:02:45.250Z,7.10
2018-09-12T06:04:49.583Z,5.33
2018-09-12T06:06:52.842Z,9.97
2018-09-12T06:08:55.994Z,3.60
2018-09-12T06:10:58.999Z,5.40
2018-09-12T06:13:02.023Z,3.40
2018-09-12T06:15:05.142Z,5.90
2018-09-12T06:17:08.119Z,3.80
2018-09-12T06:19:11.106Z,4.73
2018-09-12T06:21:14.110Z,4.37
2018-09-12T06:23:17.088Z,6.63
2018-09-12T06:25:21.182Z,4.10
2018-09-12T06:27:24.159Z,9.23
2018-09-12T06:29:27.123Z,3.80
2018-09-12T06:31:30.149Z,3.73
2018-09-12T06:33:33.133Z,3.40
2018-09-12T06:35:36.123Z,4.20
2018-09-12T06:37:39.212Z,5.33
2018-09-12T06:39:42.222Z,7.80
2018-09-12T06:41:45.224Z,3.80
2018-09-12T06:43:50.198Z,5.23
2018-09-12T06:45:53.166Z,4.57
2018-09-12T06:47:56.147Z,4.37
2018-09-12T06:49:59.190Z,5.60
2018-09-12T06:52:02.156Z,11.17
2018-09-12T06:54:05.251Z,4.97
2018-09-12T06:56:08.350Z,4.03
2018-09-12T06:58:11.500Z,4.20
2018-09-12T07:00:14.526Z,4.27
2018-09-12T07:02:17.534Z,5.37
2018-09-12T07:04:21.617Z,4.30
2018-09-12T07:06:24.592Z,6.83
2018-09-12T07:08:27.615Z,5.17
2018-09-12T07:10:30.603Z,3.73
2018-09-12T07:12:33.592Z,3.80
2018-09-12T07:14:36.739Z,3.70
2018-09-12T07:16:39.711Z,7.80
2018-09-12T07:18:42.650Z,6.63
2018-09-12T07:20:45.923Z,4.30
2018-09-12T07:22:50.610Z,5.93
2018-09-12T07:24:53.555Z,4.50
2018-09-12T07:26:56.540Z,5.33
2018-09-12T07:28:59.520Z,4.97
2018-09-12T07:31:02.535Z,5.10
2018-09-12T07:33:05.517Z,3.40
2018-09-12T07:35:08.850Z,4.73
2018-09-12T07:37:11.821Z,4.20
2018-09-12T07:39:14.781Z,5.93
2018-09-12T07:41:19.381Z,4.17
2018-09-12T07:43:22.419Z,3.97
2018-09-12T07:45:25.404Z,6.23
2018-09-12T07:47:28.586Z,7.33
2018-09-12T07:49:31.611Z,5.00
2018-09-12T07:51:34.750Z,4.97
2018-09-12T07:53:37.699Z,6.70
2018-09-12T07:55:40.674Z,6.70
2018-09-12T07:57:43.803Z,3.77
2018-09-12T07:59:46.784Z,4.63
2018-09-12T08:01:51.085Z,5.37
2018-09-12T08:03:54.163Z,6.70
2018-09-12T08:05:57.138Z,3.43
2018-09-12T08:08:00.127Z,3.83
2018-09-12T08:10:03.551Z,4.63
2018-09-12T08:12:06.512Z,4.43
2018-09-12T08:14:09.505Z,9.63
2018-09-12T08:16:12.493Z,3.87
2018-09-12T08:18:15.464Z,3.40
2018-09-12T08:20:20.134Z,3.43
2018-09-12T08:22:23.123Z,3.43
2018-09-12T08:24:26.089Z,3.70
2018-09-12T08:26:29.055Z,4.93
2018-09-12T08:28:32.141Z,3.63
2018-09-12T08:30:35.188Z,3.87
2018-09-12T08:32:38.193Z,6.33
2018-09-12T08:34:41.268Z,3.40
2018-09-12T08:36:44.232Z,6.90
2018-09-12T08:38:47.226Z,6.10
2018-09-12T08:40:51.487Z,4.23
2018-09-12T08:42:54.446Z,3.37
2018-09-12T08:44:57.447Z,3.97
2018-09-12T08:47:00.630Z,3.63
2018-09-12T08:49:04.347Z,5.40
2018-09-12T08:51:07.304Z,3.13
2018-09-12T08:53:10.279Z,6.70
2018-09-12T08:55:13.255Z,3.43
2018-09-12T08:57:16.186Z,4.87
2018-09-12T08:59:20.526Z,3.70
2018-09-12T09:01:23.573Z,3.80
2018-09-12T09:03:26.511Z,2.43
2018-09-12T09:05:29.660Z,2.77
2018-09-12T09:07:32.597Z,2.70
2018-09-12T09:09:35.578Z,3.67
2018-09-12T09:11:38.551Z,3.10
2018-09-12T09:13:41.545Z,2.50
2018-09-12T09:15:44.546Z,2.57
2018-09-12T09:17:47.513Z,4.43
2018-09-12T09:19:51.651Z,2.60
2018-09-12T09:21:55.074Z,3.40
2018-09-12T09:23:58.028Z,2.33
2018-09-12T09:26:01.006Z,3.47
2018-09-12T09:28:04.052Z,3.40
2018-09-12T09:30:07.498Z,2.77
2018-09-12T09:32:10.675Z,2.63
2018-09-12T09:34:13.652Z,3.20
2018-09-12T09:36:16.589Z,2.60
2018-09-12T09:38:21.627Z,5.00
2018-09-12T09:40:24.620Z,3.57
2018-09-12T09:42:27.583Z,4.77
2018-09-12T09:44:30.573Z,3.33
2018-09-12T09:46:33.571Z,6.10
2018-09-12T09:48:36.525Z,3.47
2018-09-12T09:50:39.560Z,3.97
2018-09-12T09:52:42.498Z,3.00
2018-09-12T09:54:45.530Z,2.57
2018-09-12T09:56:50.453Z,3.37
2018-09-12T09:58:53.411Z,2.53
2018-09-12T10:01:02.056Z,2.70
2018-09-12T10:03:10.962Z,2.87
2018-09-12T10:05:19.700Z,2.80
2018-09-12T10:07:28.437Z,2.70
2018-09-12T10:09:32.665Z,3.50
2018-09-12T10:11:35.644Z,2.70
2018-09-12T10:13:38.695Z,3.77
2018-09-12T10:15:41.784Z,2.70
2018-09-12T10:17:44.784Z,3.63
2018-09-12T10:19:47.795Z,3.07
2018-09-12T10:21:52.517Z,2.63
2018-09-12T10:23:55.520Z,2.77
2018-09-12T10:25:58.844Z,2.80
2018-09-12T10:28:01.764Z,3.87
2018-09-12T10:30:07.309Z,2.30
2018-09-12T10:32:10.563Z,2.23
2018-09-12T10:34:13.524Z,2.40
2018-09-12T10:36:16.460Z,3.50
2018-09-12T10:38:20.693Z,2.13
2018-09-12T10:40:23.695Z,2.20
2018-09-12T10:42:26.644Z,1.70
2018-09-12T10:44:29.673Z,3.50
2018-09-12T10:46:32.719Z,2.90
2018-09-12T10:48:35.695Z,2.37
2018-09-12T10:50:38.855Z,2.03
2018-09-12T10:52:41.883Z,2.93
2018-09-12T10:54:44.893Z,2.10
2018-09-12T10:56:47.916Z,2.03
2018-09-12T10:58:51.207Z,2.97
2018-09-12T11:00:54.295Z,1.53
2018-09-12T11:02:57.288Z,1.83
2018-09-12T11:05:00.311Z,1.40
2018-09-12T11:07:03.340Z,1.67
2018-09-12T11:09:10.274Z,3.77
2018-09-12T11:11:13.507Z,1.67
2018-09-12T11:13:16.487Z,2.67
2018-09-12T11:15:20.575Z,1.60
2018-09-12T11:17:23.561Z,1.83
2018-09-12T11:19:26.623Z,1.63
2018-09-12T11:21:29.620Z,1.70
2018-09-12T11:23:32.638Z,2.13
2018-09-12T11:25:35.635Z,1.80
2018-09-12T11:27:38.623Z,1.40
2018-09-12T11:29:41.756Z,1.93
2018-09-12T11:31:44.732Z,2.90
2018-09-12T11:33:47.752Z,1.40
2018-09-12T11:35:51.965Z,1.43
2018-09-12T11:37:55.069Z,2.83
2018-09-12T11:39:58.102Z,5.17
2018-09-12T11:42:01.210Z,2.83
2018-09-12T11:44:04.172Z,5.03
2018-09-12T11:46:07.254Z,2.80
2018-09-12T11:48:10.402Z,2.03
2018-09-12T11:50:13.420Z,2.13
2018-09-12T11:52:16.382Z,2.30
2018-09-12T11:54:20.658Z,3.20
2018-09-12T11:56:23.728Z,5.07
2018-09-12T11:58:26.724Z,1.97
2018-09-12T12:00:29.791Z,3.70
2018-09-12T12:02:32.875Z,3.00
2018-09-12T12:04:35.878Z,6.00
2018-09-12T12:06:38.954Z,2.83
2018-09-12T12:08:42.100Z,3.67
2018-09-12T12:10:45.148Z,4.73
2018-09-12T12:12:49.778Z,5.20
2018-09-12T12:14:52.784Z,2.50
2018-09-12T12:16:55.813Z,2.33
2018-09-12T12:18:58.828Z,3.07
2018-09-12T12:21:01.839Z,3.43
2018-09-12T12:23:05.067Z,2.73
2018-09-12T12:25:08.130Z,2.93
2018-09-12T12:27:11.372Z,3.23
2018-09-12T12:29:14.341Z,3.97
2018-09-12T12:31:17.311Z,2.60
2018-09-12T12:33:21.702Z,4.80
2018-09-12T12:35:24.760Z,3.80
2018-09-12T12:37:27.818Z,3.17
2018-09-12T12:39:30.843Z,6.03
2018-09-12T12:41:33.827Z,4.47
2018-09-12T12:43:36.838Z,2.93
2018-09-12T12:45:40.054Z,2.60
2018-09-12T12:47:43.175Z,2.57
2018-09-12T12:49:46.203Z,2.80
2018-09-12T12:51:50.888Z,4.40
2018-09-12T12:53:53.843Z,3.70
2018-09-12T12:55:56.830Z,2.60
2018-09-12T12:57:59.809Z,2.30
2018-09-12T13:00:06.102Z,3.00
2018-09-12T13:02:09.815Z,2.40
2018-09-12T13:04:12.851Z,3.67
2018-09-12T13:06:15.799Z,2.90
2018-09-12T13:08:20.546Z,2.40
2018-09-12T13:10:23.523Z,2.20
2018-09-12T13:12:26.471Z,2.93
2018-09-12T13:14:29.446Z,2.00
2018-09-12T13:16:32.533Z,2.20
2018-09-12T13:18:35.519Z,2.47
2018-09-12T13:20:38.521Z,3.00
2018-09-12T13:22:41.728Z,3.67
2018-09-12T13:24:44.723Z,2.40
2018-09-12T13:26:47.679Z,4.40
2018-09-12T13:28:52.806Z,2.83
2018-09-12T13:30:55.767Z,3.70
2018-09-12T13:32:59.039Z,1.77
2018-09-12T13:35:02.075Z,2.07
2018-09-12T13:37:05.048Z,1.93
2018-09-12T13:39:12.409Z,1.93
2018-09-12T13:41:15.387Z,2.47
2018-09-12T13:43:20.184Z,1.90
2018-09-12T13:45:23.188Z,2.63
2018-09-12T13:47:26.182Z,2.90
2018-09-12T13:49:29.199Z,1.90
2018-09-12T13:51:32.187Z,3.50
2018-09-12T13:53:35.173Z,2.60
2018-09-12T13:55:38.150Z,3.07
2018-09-12T13:57:41.208Z,2.73
2018-09-12T13:59:44.125Z,3.83
2018-09-12T14:01:47.162Z,2.20
2018-09-12T14:03:51.569Z,3.53
2018-09-12T14:05:54.561Z,3.00
2018-09-12T14:07:57.609Z,2.43
2018-09-12T14:10:00.600Z,1.90
2018-09-12T14:12:04.205Z,3.20
2018-09-12T14:14:07.473Z,2.20
2018-09-12T14:16:10.499Z,1.90
2018-09-12T14:18:13.453Z,2.00
2018-09-12T14:20:16.520Z,4.97
2018-09-12T14:22:21.379Z,3.27
2018-09-12T14:24:24.361Z,1.90
2018-09-12T14:26:27.431Z,1.90
2018-09-12T14:28:30.411Z,2.37
2018-09-12T14:30:33.405Z,2.23
2018-09-12T14:32:36.610Z,3.27
2018-09-12T14:34:39.611Z,2.93
2018-09-12T14:36:42.531Z,1.93
2018-09-12T14:38:45.508Z,3.67
2018-09-12T14:40:50.294Z,1.83
2018-09-12T14:42:54.076Z,1.80
2018-09-12T14:44:57.106Z,2.40
2018-09-12T14:47:00.102Z,6.07
2018-09-12T14:49:03.304Z,4.50
2018-09-12T14:51:06.537Z,4.83
2018-09-12T14:53:09.518Z,2.67
2018-09-12T14:55:12.543Z,2.83
2018-09-12T14:57:15.520Z,6.20
2018-09-12T14:59:19.958Z,3.50
2018-09-12T15:01:22.919Z,3.63
2018-09-12T15:03:25.915Z,2.60
2018-09-12T15:05:29.064Z,3.40
2018-09-12T15:07:32.077Z,4.90
2018-09-12T15:09:35.070Z,2.43
2018-09-12T15:11:38.375Z,3.03
2018-09-12T15:13:41.508Z,2.60
2018-09-12T15:15:44.516Z,3.10
2018-09-12T15:17:47.588Z,6.70
2018-09-12T15:19:52.010Z,5.60
2018-09-12T15:21:55.019Z,3.70
2018-09-12T15:23:58.226Z,3.93
2018-09-12T15:26:01.243Z,2.60
2018-09-12T15:28:04.395Z,4.10
2018-09-12T15:30:07.788Z,5.70
2018-09-12T15:32:10.759Z,7.90
2018-09-12T15:34:13.930Z,3.93
2018-09-12T15:36:16.883Z,3.10
2018-09-12T15:38:21.506Z,3.93
2018-09-12T15:40:24.539Z,5.20
2018-09-12T15:42:27.632Z,4.37
2018-09-12T15:44:30.623Z,3.40
2018-09-12T15:46:33.600Z,3.30
2018-09-12T15:48:36.548Z,5.00
2018-09-12T15:50:39.581Z,3.80
2018-09-12T15:52:42.540Z,4.47
2018-09-12T15:54:45.494Z,3.30
2018-09-12T15:56:50.083Z,4.37
2018-09-12T15:58:53.031Z,4.00
2018-09-12T16:00:56.002Z,7.03
2018-09-12T16:02:58.994Z,9.87
2018-09-12T16:05:01.940Z,11.33
2018-09-12T16:07:05.017Z,4.70
2018-09-12T16:09:09.404Z,11.73
2018-09-12T16:11:12.446Z,4.50
2018-09-12T16:13:15.406Z,4.30
2018-09-12T16:15:19.636Z,5.60
2018-09-12T16:17:22.595Z,7.73
2018-09-12T16:19:25.622Z,6.57
2018-09-12T16:21:28.917Z,6.90
2018-09-12T16:23:31.903Z,6.43
2018-09-12T16:25:34.841Z,4.70
2018-09-12T16:27:38.288Z,6.87
2018-09-12T16:29:41.286Z,13.00
2018-09-12T16:31:44.272Z,6.30
2018-09-12T16:33:47.616Z,11.73
2018-09-12T16:35:51.921Z,5.20
2018-09-12T16:37:54.958Z,8.80
2018-09-12T16:39:57.978Z,11.00
2018-09-12T16:42:00.927Z,8.13
2018-09-12T16:44:03.941Z,6.97
2018-09-12T16:46:07.361Z,6.80
2018-09-12T16:48:10.391Z,8.13
2018-09-12T16:50:13.634Z,5.50
2018-09-12T16:52:16.595Z,12.20
2018-09-12T16:54:20.877Z,5.93
2018-09-12T16:56:24.216Z,8.43
2018-09-12T16:58:27.111Z,5.67
2018-09-12T17:00:30.107Z,6.80
2018-09-12T17:02:33.437Z,10.60
2018-09-12T17:04:36.431Z,9.90
2018-09-12T17:06:39.463Z,11.20
2018-09-12T17:08:42.676Z,10.17
2018-09-12T17:10:45.647Z,12.70
2018-09-12T17:12:50.363Z,12.50
2018-09-12T17:14:53.438Z,11.33
2018-09-12T17:16:56.463Z,10.10
2018-09-12T17:18:59.431Z,9.47
2018-09-12T17:21:02.485Z,5.83
2018-09-12T17:23:05.534Z,6.63
2018-09-12T17:25:08.572Z,8.30
2018-09-12T17:27:11.847Z,8.73
2018-09-12T17:29:14.808Z,15.53
2018-09-12T17:31:17.756Z,8.60
2018-09-12T17:33:22.382Z,6.60
2018-09-12T17:35:29.472Z,8.80
2018-09-12T17:37:32.759Z,9.53
2018-09-12T17:39:35.807Z,6.40
2018-09-12T17:41:38.900Z,8.07
2018-09-12T17:43:42.035Z,7.33
2018-09-12T17:45:45.051Z,8.20
2018-09-12T17:47:50.075Z,6.53
2018-09-12T17:49:53.111Z,7.50
2018-09-12T17:51:56.118Z,5.97
2018-09-12T17:53:59.329Z,9.43
2018-09-12T17:56:02.365Z,6.13
2018-09-12T17:58:05.457Z,6.77
2018-09-12T18:00:08.571Z,6.00
2018-09-12T18:02:11.682Z,5.70
2018-09-12T18:04:14.667Z,5.43
2018-09-12T18:06:17.948Z,5.00
2018-09-12T18:08:20.959Z,5.70
2018-09-12T18:10:23.993Z,4.53
2018-09-12T18:12:27.067Z,5.20
2018-09-12T18:14:30.088Z,7.33
2018-09-12T18:16:33.139Z,5.03
2018-09-12T18:18:36.140Z,5.00
2018-09-12T18:20:39.224Z,4.90
2018-09-12T18:22:42.383Z,3.80
2018-09-12T18:24:45.520Z,4.43
2018-09-12T18:26:49.922Z,5.43
2018-09-12T18:28:53.017Z,4.13
2018-09-12T18:30:56.404Z,3.93
2018-09-12T18:32:59.403Z,4.53
2018-09-12T18:35:02.475Z,4.60
2018-09-12T18:37:05.590Z,3.73
2018-09-12T18:39:09.444Z,2.87
2018-09-12T18:41:12.557Z,5.77
2018-09-12T18:43:15.553Z,4.13
2018-09-12T18:45:20.336Z,3.67
2018-09-12T18:47:23.371Z,4.10
2018-09-12T18:49:26.411Z,4.67
2018-09-12T18:51:29.439Z,3.70
2018-09-12T18:53:32.456Z,3.33
2018-09-12T18:55:35.430Z,4.23
2018-09-12T18:57:38.450Z,3.00
2018-09-12T18:59:41.618Z,4.33
2018-09-12T19:01:44.607Z,5.60
2018-09-12T19:03:47.639Z,2.37
2018-09-12T19:05:52.307Z,3.50
2018-09-12T19:07:55.316Z,3.17
2018-09-12T19:09:58.317Z,3.63
2018-09-12T19:12:01.346Z,3.00
2018-09-12T19:14:04.334Z,3.27
2018-09-12T19:16:07.355Z,5.27
2018-09-12T19:18:10.392Z,2.90
2018-09-12T19:20:13.407Z,3.53
2018-09-12T19:22:16.390Z,2.47
2018-09-12T19:24:20.617Z,2.10
2018-09-12T19:26:23.676Z,5.03
2018-09-12T19:28:26.651Z,3.10
2018-09-12T19:30:29.733Z,3.40
2018-09-12T19:32:32.735Z,2.23
2018-09-12T19:34:35.717Z,3.60
2018-09-12T19:36:39.280Z,2.13
2018-09-12T19:38:42.407Z,2.33
2018-09-12T19:40:45.413Z,2.80
2018-09-12T19:42:49.591Z,3.17
2018-09-12T19:44:52.648Z,3.53
2018-09-12T19:46:55.645Z,1.70
2018-09-12T19:48:58.657Z,2.27
2018-09-12T19:51:01.700Z,2.20
2018-09-12T19:53:04.789Z,2.00
2018-09-12T19:55:07.862Z,1.63
2018-09-12T19:57:11.579Z,3.57
2018-09-12T19:59:14.586Z,2.10
2018-09-12T20:01:17.718Z,2.40
2018-09-12T20:03:21.882Z,2.40
2018-09-12T20:05:24.922Z,2.90
2018-09-12T20:07:29.105Z,1.90
2018-09-12T20:09:32.052Z,2.43
2018-09-12T20:11:35.063Z,1.97
2018-09-12T20:13:38.119Z,2.03
2018-09-12T20:15:41.304Z,5.40
2018-09-12T20:17:44.404Z,4.93
2018-09-12T20:19:47.535Z,2.90
2018-09-12T20:21:52.581Z,3.20
2018-09-12T20:23:55.677Z,2.00
2018-09-12T20:25:58.561Z,3.47
2018-09-12T20:28:01.548Z,1.80
2018-09-12T20:30:04.687Z,2.00
2018-09-12T20:32:07.637Z,1.67
2018-09-12T20:34:10.757Z,1.80
2018-09-12T20:36:13.726Z,1.77
2018-09-12T20:38:16.794Z,1.50
2018-09-12T20:40:21.271Z,1.77
2018-09-12T20:42:24.416Z,1.77
2018-09-12T20:44:27.388Z,2.00
2018-09-12T20:46:30.345Z,1.50
2018-09-12T20:48:33.521Z,1.40
2018-09-12T20:50:47.789Z,1.53
2018-09-12T20:52:52.527Z,1.50
2018-09-12T20:54:55.589Z,2.17
2018-09-12T20:56:59.911Z,1.30
2018-09-12T20:59:02.908Z,1.80
2018-09-12T21:01:06.028Z,1.27
2018-09-12T21:03:09.196Z,1.80
2018-09-12T21:05:12.204Z,1.77
2018-09-12T21:07:15.339Z,2.50
2018-09-12T21:09:18.359Z,1.70
2018-09-12T21:11:21.293Z,1.87
2018-09-12T21:13:24.664Z,2.80
2018-09-12T21:15:27.693Z,1.70
2018-09-12T21:17:32.191Z,1.60
2018-09-12T21:19:35.256Z,1.53
2018-09-12T21:21:38.306Z,4.03
2018-09-12T21:23:41.307Z,1.80
2018-09-12T21:25:44.308Z,1.50
2018-09-12T21:27:47.322Z,1.83
2018-09-12T21:29:50.307Z,1.40
2018-09-12T21:31:53.360Z,1.50
2018-09-12T21:33:56.591Z,2.40
2018-09-12T21:36:01.152Z,3.23
2018-09-12T21:38:04.310Z,2.53
2018-09-12T21:40:07.527Z,2.30
2018-09-12T21:42:10.538Z,1.13
2018-09-12T21:44:13.542Z,2.00
2018-09-12T21:46:16.584Z,2.00
2018-09-12T21:48:19.585Z,1.40
2018-09-12T21:50:22.562Z,1.87
2018-09-12T21:52:25.548Z,1.47
2018-09-12T21:54:30.370Z,2.03
2018-09-12T21:56:33.419Z,1.23
2018-09-12T21:58:36.403Z,1.80
2018-09-12T22:00:39.883Z,1.43
2018-09-12T22:02:42.890Z,1.67
2018-09-12T22:04:45.861Z,1.40
2018-09-12T22:06:49.063Z,2.47
2018-09-12T22:08:52.168Z,1.57
2018-09-12T22:10:55.191Z,1.60
2018-09-12T22:12:59.401Z,1.60
2018-09-12T22:15:02.497Z,1.47
2018-09-12T22:17:05.491Z,2.17
2018-09-12T22:19:08.641Z,1.40
2018-09-12T22:21:11.603Z,1.80
2018-09-12T22:23:14.580Z,1.33
2018-09-12T22:25:17.588Z,2.00
2018-09-12T22:27:20.617Z,2.70
2018-09-12T22:29:23.616Z,2.13
2018-09-12T22:31:26.877Z,3.40
2018-09-12T22:33:31.412Z,2.57
2018-09-12T22:35:34.404Z,1.50
2018-09-12T22:37:37.543Z,1.30
2018-09-12T22:39:40.604Z,1.10
2018-09-12T22:41:43.631Z,1.43
2018-09-12T22:43:46.639Z,1.20
2018-09-12T22:45:49.658Z,1.60
2018-09-12T22:47:52.657Z,1.50
2018-09-12T22:49:55.672Z,1.57
2018-09-12T22:51:59.954Z,1.53
2018-09-12T22:54:02.971Z,2.63
2018-09-12T22:56:06.038Z,1.93
2018-09-12T22:58:09.031Z,2.47
2018-09-12T23:00:12.079Z,2.30
2018-09-12T23:02:15.067Z,1.63
2018-09-12T23:04:18.055Z,1.47
2018-09-12T23:06:21.066Z,2.83
2018-09-12T23:08:24.037Z,1.27
2018-09-12T23:10:27.004Z,1.83
2018-09-12T23:12:31.458Z,1.50
2018-09-12T23:14:34.487Z,1.33
2018-09-12T23:16:37.734Z,1.80
2018-09-12T23:18:40.903Z,1.30
2018-09-12T23:20:43.963Z,1.40
2018-09-12T23:22:46.949Z,1.47
2018-09-12T23:24:49.935Z,1.20
2018-09-12T23:26:52.920Z,1.53
2018-09-12T23:28:55.923Z,1.27
2018-09-12T23:31:00.676Z,1.50
2018-09-12T23:33:03.694Z,1.20
2018-09-12T23:35:06.994Z,1.33
2018-09-12T23:37:09.980Z,1.47
2018-09-12T23:39:13.686Z,1.87
2018-09-12T23:41:16.704Z,1.40
2018-09-12T23:43:19.699Z,1.80
2018-09-12T23:45:22.695Z,1.67
2018-09-12T23:47:25.698Z,1.40
2018-09-12T23:49:30.250Z,3.00
2018-09-12T23:51:33.242Z,1.60
2018-09-12T23:53:36.240Z,1.40
2018-09-12T23:55:39.351Z,1.40
2018-09-12T23:57:42.434Z,1.50
2018-09-12T23:59:45.435Z,1.70
